Wuustwezel, Belgium
Current Conditions -  °F | °C
As of 1:25 AM on Saturday 29 Nov 2014 (Local Time) from EHWO Reporting Station
Haze Haze  
Wind Chill: 34°   Ceiling: Unl
Heat Index: 41°   Visibility: 5mi
Dew Point: 37°   Wind: 13mph
Humidity: 87%   Direction: 90°E
Pressure: 29.83"   Gusts: NA
Location:  51.39°N, 4.6°E
Report Text: EHWO 290025Z AUTO 09011KT 8000 BR NCD 05/03 Q1010 BLU
Loading
Personal Weather Stations






























Interactive Weather Map New forecast layout! Learn more

10-Day Weather Forecast

Advertisements
Track Severe Weather on mobile